sensor_id;sensor_type;location;lat;lon;timestamp;pressure;altitude;pressure_sealevel;temperature;humidity
69855;BME280;57146;48.140;16.304;2023-07-09T00:01:16;99740.88;;;19.42;62.25
69855;BME280;57146;48.140;16.304;2023-07-09T00:03:46;99737.88;;;19.44;62.31
69855;BME280;57146;48.140;16.304;2023-07-09T00:06:14;99749.91;;;19.37;62.61
69855;BME280;57146;48.140;16.304;2023-07-09T00:08:43;99742.72;;;19.22;63.27
69855;BME280;57146;48.140;16.304;2023-07-09T00:11:11;99752.53;;;19.18;63.98
69855;BME280;57146;48.140;16.304;2023-07-09T00:13:38;99754.94;;;19.07;64.47
69855;BME280;57146;48.140;16.304;2023-07-09T00:16:15;99747.97;;;19.03;63.86
69855;BME280;57146;48.140;16.304;2023-07-09T00:18:45;99748.84;;;19.07;63.65
69855;BME280;57146;48.140;16.304;2023-07-09T00:21:12;99750.38;;;19.08;63.99
69855;BME280;57146;48.140;16.304;2023-07-09T00:23:40;99753.72;;;19.05;63.86
69855;BME280;57146;48.140;16.304;2023-07-09T00:26:12;99752.59;;;19.06;63.76
69855;BME280;57146;48.140;16.304;2023-07-09T00:28:44;99749.94;;;19.06;63.77
69855;BME280;57146;48.140;16.304;2023-07-09T00:31:13;99755.09;;;18.99;64.40
69855;BME280;57146;48.140;16.304;2023-07-09T00:34:05;99750.03;;;18.94;64.34
69855;BME280;57146;48.140;16.304;2023-07-09T00:36:32;99757.09;;;18.86;64.69
69855;BME280;57146;48.140;16.304;2023-07-09T00:38:59;99760.34;;;18.79;65.83
69855;BME280;57146;48.140;16.304;2023-07-09T00:41:35;99765.50;;;18.72;66.89
69855;BME280;57146;48.140;16.304;2023-07-09T00:51:56;99759.22;;;18.52;67.17
69855;BME280;57146;48.140;16.304;2023-07-09T00:54:30;99759.03;;;18.45;66.90
69855;BME280;57146;48.140;16.304;2023-07-09T00:57:04;99766.94;;;18.41;66.88
69855;BME280;57146;48.140;16.304;2023-07-09T00:59:33;99770.06;;;18.43;66.73
69855;BME280;57146;48.140;16.304;2023-07-09T01:02:00;99765.72;;;18.39;66.71
69855;BME280;57146;48.140;16.304;2023-07-09T01:04:28;99768.06;;;18.40;66.47
69855;BME280;57146;48.140;16.304;2023-07-09T01:06:56;99767.28;;;18.40;66.13
69855;BME280;57146;48.140;16.304;2023-07-09T01:09:25;99765.41;;;18.40;66.23
69855;BME280;57146;48.140;16.304;2023-07-09T01:11:53;99757.72;;;18.39;66.61
69855;BME280;57146;48.140;16.304;2023-07-09T01:14:21;99761.69;;;18.45;66.44
69855;BME280;57146;48.140;16.304;2023-07-09T01:17:02;99759.81;;;18.46;66.43
69855;BME280;57146;48.140;16.304;2023-07-09T01:19:36;99756.28;;;18.41;66.58
69855;BME280;57146;48.140;16.304;2023-07-09T01:22:05;99753.09;;;18.36;66.43
69855;BME280;57146;48.140;16.304;2023-07-09T01:24:53;99758.75;;;18.34;67.13
69855;BME280;57146;48.140;16.304;2023-07-09T01:27:36;99753.66;;;18.29;67.21
69855;BME280;57146;48.140;16.304;2023-07-09T01:30:08;99757.00;;;18.26;68.17
69855;BME280;57146;48.140;16.304;2023-07-09T01:32:38;99767.88;;;18.21;68.22
69855;BME280;57146;48.140;16.304;2023-07-09T01:35:06;99762.03;;;18.15;68.16
69855;BME280;57146;48.140;16.304;2023-07-09T01:37:36;99761.84;;;18.08;68.32
69855;BME280;57146;48.140;16.304;2023-07-09T01:40:05;99762.16;;;18.07;68.74
69855;BME280;57146;48.140;16.304;2023-07-09T01:42:53;99762.75;;;18.00;69.05
69855;BME280;57146;48.140;16.304;2023-07-09T01:45:21;99766.09;;;17.97;69.41
69855;BME280;57146;48.140;16.304;2023-07-09T01:47:49;99761.53;;;17.98;69.23
69855;BME280;57146;48.140;16.304;2023-07-09T01:50:17;99762.66;;;17.97;69.74
69855;BME280;57146;48.140;16.304;2023-07-09T01:52:44;99756.22;;;17.98;69.72
69855;BME280;57146;48.140;16.304;2023-07-09T01:55:14;99766.41;;;17.95;70.22
69855;BME280;57146;48.140;16.304;2023-07-09T01:57:41;99766.31;;;17.92;70.45
69855;BME280;57146;48.140;16.304;2023-07-09T02:00:15;99763.66;;;17.92;70.38
69855;BME280;57146;48.140;16.304;2023-07-09T02:02:44;99760.47;;;17.86;70.93
69855;BME280;57146;48.140;16.304;2023-07-09T02:05:14;99766.00;;;17.81;71.26
69855;BME280;57146;48.140;16.304;2023-07-09T02:07:42;99769.31;;;17.78;71.06
69855;BME280;57146;48.140;16.304;2023-07-09T02:10:11;99765.47;;;17.76;71.29
69855;BME280;57146;48.140;16.304;2023-07-09T02:12:38;99770.19;;;17.70;71.68
69855;BME280;57146;48.140;16.304;2023-07-09T02:15:07;99774.31;;;17.67;71.56
69855;BME280;57146;48.140;16.304;2023-07-09T02:17:34;99776.66;;;17.69;71.70
69855;BME280;57146;48.140;16.304;2023-07-09T02:20:03;99779.97;;;17.66;71.84
69855;BME280;57146;48.140;16.304;2023-07-09T02:22:30;99783.66;;;17.61;71.86
69855;BME280;57146;48.140;16.304;2023-07-09T02:24:57;99779.09;;;17.62;72.06
69855;BME280;57146;48.140;16.304;2023-07-09T02:27:25;99790.50;;;17.62;72.25
69855;BME280;57146;48.140;16.304;2023-07-09T02:29:52;99784.84;;;17.52;72.81
69855;BME280;57146;48.140;16.304;2023-07-09T02:32:21;99780.97;;;17.49;72.92
69855;BME280;57146;48.140;16.304;2023-07-09T02:34:49;99786.75;;;17.51;73.29
69855;BME280;57146;48.140;16.304;2023-07-09T02:37:16;99793.50;;;17.48;72.97
69855;BME280;57146;48.140;16.304;2023-07-09T02:39:44;99791.06;;;17.43;73.38
69855;BME280;57146;48.140;16.304;2023-07-09T02:42:13;99799.06;;;17.43;73.23
69855;BME280;57146;48.140;16.304;2023-07-09T02:44:41;99795.06;;;17.37;74.16
69855;BME280;57146;48.140;16.304;2023-07-09T02:47:10;99796.38;;;17.31;74.06
69855;BME280;57146;48.140;16.304;2023-07-09T02:49:37;99792.16;;;17.30;73.73
69855;BME280;57146;48.140;16.304;2023-07-09T02:52:04;99798.59;;;17.29;73.81
69855;BME280;57146;48.140;16.304;2023-07-09T02:54:32;99795.84;;;17.26;74.07
69855;BME280;57146;48.140;16.304;2023-07-09T02:57:00;99802.47;;;17.19;74.30
69855;BME280;57146;48.140;16.304;2023-07-09T02:59:27;99801.69;;;17.19;74.79
69855;BME280;57146;48.140;16.304;2023-07-09T03:01:56;99804.66;;;17.17;75.07
69855;BME280;57146;48.140;16.304;2023-07-09T03:04:25;99802.22;;;17.12;75.58
69855;BME280;57146;48.140;16.304;2023-07-09T03:06:54;99804.00;;;17.08;75.93
69855;BME280;57146;48.140;16.304;2023-07-09T03:09:21;99822.16;;;17.06;75.59
69855;BME280;57146;48.140;16.304;2023-07-09T03:11:48;99819.38;;;17.03;75.88
69855;BME280;57146;48.140;16.304;2023-07-09T03:14:15;99825.81;;;17.02;76.35
69855;BME280;57146;48.140;16.304;2023-07-09T03:16:43;99817.72;;;16.98;76.26
69855;BME280;57146;48.140;16.304;2023-07-09T03:19:15;99820.56;;;16.93;76.35
69855;BME280;57146;48.140;16.304;2023-07-09T03:21:42;99829.00;;;16.95;76.06
69855;BME280;57146;48.140;16.304;2023-07-09T03:24:11;99830.91;;;16.94;76.47
69855;BME280;57146;48.140;16.304;2023-07-09T03:26:38;99827.78;;;16.92;76.23
69855;BME280;57146;48.140;16.304;2023-07-09T03:29:06;99826.09;;;16.88;76.17
69855;BME280;57146;48.140;16.304;2023-07-09T03:31:33;99825.66;;;16.86;76.39
69855;BME280;57146;48.140;16.304;2023-07-09T03:34:01;99828.00;;;16.87;76.48
69855;BME280;57146;48.140;16.304;2023-07-09T03:36:28;99826.69;;;16.93;76.53
69855;BME280;57146;48.140;16.304;2023-07-09T03:39:20;99821.81;;;16.95;77.00
69855;BME280;57146;48.140;16.304;2023-07-09T03:41:48;99829.78;;;16.95;76.43
69855;BME280;57146;48.140;16.304;2023-07-09T03:44:18;99827.13;;;16.95;76.94
69855;BME280;57146;48.140;16.304;2023-07-09T03:46:45;99828.22;;;16.94;77.07
69855;BME280;57146;48.140;16.304;2023-07-09T03:49:13;99832.13;;;16.97;77.07
69855;BME280;57146;48.140;16.304;2023-07-09T03:51:41;99832.13;;;16.97;77.07
69855;BME280;57146;48.140;16.304;2023-07-09T03:54:08;99825.34;;;16.99;77.26
69855;BME280;57146;48.140;16.304;2023-07-09T03:56:35;99830.47;;;17.05;77.13
69855;BME280;57146;48.140;16.304;2023-07-09T03:59:07;99831.81;;;17.11;77.05
69855;BME280;57146;48.140;16.304;2023-07-09T04:01:35;99827.41;;;17.15;77.56
69855;BME280;57146;48.140;16.304;2023-07-09T04:04:02;99829.06;;;17.19;77.90
69855;BME280;57146;48.140;16.304;2023-07-09T04:06:31;99826.66;;;17.27;77.99
69855;BME280;57146;48.140;16.304;2023-07-09T04:08:58;99824.09;;;17.30;77.34
69855;BME280;57146;48.140;16.304;2023-07-09T04:11:25;99818.13;;;17.33;77.52
69855;BME280;57146;48.140;16.304;2023-07-09T04:13:53;99825.44;;;17.36;77.39
69855;BME280;57146;48.140;16.304;2023-07-09T04:16:20;99827.88;;;17.41;77.08
69855;BME280;57146;48.140;16.304;2023-07-09T04:18:49;99831.75;;;17.44;77.26
69855;BME280;57146;48.140;16.304;2023-07-09T04:21:17;99820.47;;;17.47;77.64
69855;BME280;57146;48.140;16.304;2023-07-09T04:23:45;99824.00;;;17.51;77.25
69855;BME280;57146;48.140;16.304;2023-07-09T04:26:15;99829.09;;;17.56;77.33
69855;BME280;57146;48.140;16.304;2023-07-09T04:28:42;99827.66;;;17.59;77.65
69855;BME280;57146;48.140;16.304;2023-07-09T04:31:10;99815.00;;;17.68;77.10
69855;BME280;57146;48.140;16.304;2023-07-09T04:33:37;99826.09;;;17.70;76.93
69855;BME280;57146;48.140;16.304;2023-07-09T04:36:05;99825.25;;;17.78;75.73
69855;BME280;57146;48.140;16.304;2023-07-09T04:38:32;99818.69;;;17.88;73.46
69855;BME280;57146;48.140;16.304;2023-07-09T04:41:01;99823.13;;;17.96;70.38
69855;BME280;57146;48.140;16.304;2023-07-09T04:43:29;99827.66;;;18.08;69.71
69855;BME280;57146;48.140;16.304;2023-07-09T04:45:56;99833.63;;;18.17;71.88
69855;BME280;57146;48.140;16.304;2023-07-09T04:48:23;99841.06;;;18.24;72.33
69855;BME280;57146;48.140;16.304;2023-07-09T04:50:50;99848.47;;;18.30;72.32
69855;BME280;57146;48.140;16.304;2023-07-09T04:53:17;99841.81;;;18.36;72.37
69855;BME280;57146;48.140;16.304;2023-07-09T04:55:44;99853.44;;;18.44;72.09
69855;BME280;57146;48.140;16.304;2023-07-09T04:58:11;99862.06;;;18.53;69.34
69855;BME280;57146;48.140;16.304;2023-07-09T05:00:39;99859.28;;;18.62;70.09
69855;BME280;57146;48.140;16.304;2023-07-09T05:03:06;99848.47;;;18.71;69.71
69855;BME280;57146;48.140;16.304;2023-07-09T05:05:33;99854.78;;;18.78;70.09
69855;BME280;57146;48.140;16.304;2023-07-09T05:08:25;99865.41;;;18.90;67.95
69855;BME280;57146;48.140;16.304;2023-07-09T05:10:53;99864.94;;;19.01;68.22
69855;BME280;57146;48.140;16.304;2023-07-09T05:13:20;99865.13;;;19.08;68.24
69855;BME280;57146;48.140;16.304;2023-07-09T05:15:49;99871.41;;;19.16;68.99
69855;BME280;57146;48.140;16.304;2023-07-09T05:18:17;99868.91;;;19.23;67.67
69855;BME280;57146;48.140;16.304;2023-07-09T05:20:46;99869.44;;;19.28;67.62
69855;BME280;57146;48.140;16.304;2023-07-09T05:23:13;99870.50;;;19.40;66.91
69855;BME280;57146;48.140;16.304;2023-07-09T05:25:42;99874.03;;;19.44;66.81
69855;BME280;57146;48.140;16.304;2023-07-09T05:28:34;99868.00;;;19.47;66.19
69855;BME280;57146;48.140;16.304;2023-07-09T05:31:01;99866.94;;;19.51;65.82
69855;BME280;57146;48.140;16.304;2023-07-09T05:33:29;99875.50;;;19.57;65.90
69855;BME280;57146;48.140;16.304;2023-07-09T05:35:56;99881.03;;;19.64;66.24
69855;BME280;57146;48.140;16.304;2023-07-09T05:38:23;99877.41;;;19.72;65.03
69855;BME280;57146;48.140;16.304;2023-07-09T05:41:11;99882.22;;;19.82;64.11
69855;BME280;57146;48.140;16.304;2023-07-09T05:43:38;99878.66;;;19.94;64.30
69855;BME280;57146;48.140;16.304;2023-07-09T05:46:05;99888.81;;;20.04;64.71
69855;BME280;57146;48.140;16.304;2023-07-09T05:48:33;99886.38;;;20.15;63.04
69855;BME280;57146;48.140;16.304;2023-07-09T05:51:00;99882.88;;;20.30;61.49
69855;BME280;57146;48.140;16.304;2023-07-09T05:53:30;99882.59;;;20.51;60.18
69855;BME280;57146;48.140;16.304;2023-07-09T05:55:57;99874.94;;;20.69;59.99
69855;BME280;57146;48.140;16.304;2023-07-09T05:58:26;99879.78;;;20.83;63.29
69855;BME280;57146;48.140;16.304;2023-07-09T06:00:54;99880.81;;;20.98;63.85
69855;BME280;57146;48.140;16.304;2023-07-09T06:03:24;99881.19;;;21.19;62.39
69855;BME280;57146;48.140;16.304;2023-07-09T06:05:53;99874.22;;;21.34;61.15
69855;BME280;57146;48.140;16.304;2023-07-09T06:08:22;99880.47;;;21.42;60.58
69855;BME280;57146;48.140;16.304;2023-07-09T06:10:57;99878.75;;;21.53;61.21
69855;BME280;57146;48.140;16.304;2023-07-09T06:13:25;99880.03;;;21.63;59.88
69855;BME280;57146;48.140;16.304;2023-07-09T06:15:54;99878.72;;;21.76;59.45
69855;BME280;57146;48.140;16.304;2023-07-09T06:18:22;99889.25;;;21.88;58.89
69855;BME280;57146;48.140;16.304;2023-07-09T06:20:53;99891.38;;;22.02;58.08
69855;BME280;57146;48.140;16.304;2023-07-09T06:23:22;99884.19;;;22.10;56.49
69855;BME280;57146;48.140;16.304;2023-07-09T06:25:49;99896.22;;;22.19;56.50
69855;BME280;57146;48.140;16.304;2023-07-09T06:28:21;99892.50;;;22.28;55.92
69855;BME280;57146;48.140;16.304;2023-07-09T06:30:51;99898.41;;;22.40;56.74
69855;BME280;57146;48.140;16.304;2023-07-09T06:33:19;99896.63;;;22.52;56.14
69855;BME280;57146;48.140;16.304;2023-07-09T06:35:48;99894.81;;;22.59;55.01
69855;BME280;57146;48.140;16.304;2023-07-09T06:38:16;99893.38;;;22.69;54.83
69855;BME280;57146;48.140;16.304;2023-07-09T06:40:44;99895.03;;;22.77;54.95
69855;BME280;57146;48.140;16.304;2023-07-09T06:43:11;99890.25;;;22.93;56.11
69855;BME280;57146;48.140;16.304;2023-07-09T06:45:57;99895.44;;;23.13;56.70
69855;BME280;57146;48.140;16.304;2023-07-09T06:48:26;99891.81;;;23.35;55.06
69855;BME280;57146;48.140;16.304;2023-07-09T06:50:56;99888.53;;;23.56;53.96
69855;BME280;57146;48.140;16.304;2023-07-09T06:53:28;99892.19;;;23.82;54.71
69855;BME280;57146;48.140;16.304;2023-07-09T06:55:56;99888.44;;;23.97;55.82
69855;BME280;57146;48.140;16.304;2023-07-09T06:58:23;99885.06;;;24.07;54.03
69855;BME280;57146;48.140;16.304;2023-07-09T07:00:51;99892.38;;;24.10;52.41
69855;BME280;57146;48.140;16.304;2023-07-09T07:03:20;99895.47;;;24.12;52.28
69855;BME280;57146;48.140;16.304;2023-07-09T07:05:48;99895.47;;;24.12;52.75
69855;BME280;57146;48.140;16.304;2023-07-09T07:08:18;99890.91;;;24.24;52.66
69855;BME280;57146;48.140;16.304;2023-07-09T07:10:47;99892.47;;;24.28;51.48
69855;BME280;57146;48.140;16.304;2023-07-09T07:13:15;99883.66;;;24.31;54.00
69855;BME280;57146;48.140;16.304;2023-07-09T07:15:50;99884.91;;;24.45;54.58
69855;BME280;57146;48.140;16.304;2023-07-09T07:18:17;99890.34;;;24.59;53.06
69855;BME280;57146;48.140;16.304;2023-07-09T07:20:44;99888.06;;;24.72;52.56
69855;BME280;57146;48.140;16.304;2023-07-09T07:23:11;99890.78;;;24.79;50.74
69855;BME280;57146;48.140;16.304;2023-07-09T07:25:42;99889.25;;;24.89;53.81
69855;BME280;57146;48.140;16.304;2023-07-09T07:28:09;99886.19;;;24.97;51.09
69855;BME280;57146;48.140;16.304;2023-07-09T07:30:40;99889.69;;;25.08;52.36
69855;BME280;57146;48.140;16.304;2023-07-09T07:33:07;99878.22;;;25.26;52.03
69855;BME280;57146;48.140;16.304;2023-07-09T07:35:34;99879.75;;;25.38;49.99
69855;BME280;57146;48.140;16.304;2023-07-09T07:38:02;99872.44;;;25.52;49.88
69855;BME280;57146;48.140;16.304;2023-07-09T07:40:32;99878.56;;;25.64;49.73
69855;BME280;57146;48.140;16.304;2023-07-09T07:42:59;99872.41;;;25.67;47.81
69855;BME280;57146;48.140;16.304;2023-07-09T07:45:27;99875.88;;;25.71;48.06
69855;BME280;57146;48.140;16.304;2023-07-09T07:47:54;99864.72;;;25.76;48.19
69855;BME280;57146;48.140;16.304;2023-07-09T07:50:21;99870.91;;;25.80;49.59
69855;BME280;57146;48.140;16.304;2023-07-09T07:52:48;99863.91;;;25.93;48.88
69855;BME280;57146;48.140;16.304;2023-07-09T07:55:18;99864.25;;;26.13;47.96
69855;BME280;57146;48.140;16.304;2023-07-09T07:57:45;99864.97;;;26.28;47.48
69855;BME280;57146;48.140;16.304;2023-07-09T08:00:13;99864.22;;;26.27;46.37
69855;BME280;57146;48.140;16.304;2023-07-09T08:02:40;99864.63;;;26.26;46.82
69855;BME280;57146;48.140;16.304;2023-07-09T08:05:07;99860.69;;;26.41;47.47
69855;BME280;57146;48.140;16.304;2023-07-09T08:07:38;99861.41;;;26.56;47.10
69855;BME280;57146;48.140;16.304;2023-07-09T08:10:05;99859.38;;;26.74;46.09
69855;BME280;57146;48.140;16.304;2023-07-09T08:12:34;99868.22;;;26.79;44.49
69855;BME280;57146;48.140;16.304;2023-07-09T08:15:01;99855.84;;;26.85;44.16
69855;BME280;57146;48.140;16.304;2023-07-09T08:17:30;99859.28;;;26.89;47.18
69855;BME280;57146;48.140;16.304;2023-07-09T08:19:57;99871.94;;;27.03;47.68
69855;BME280;57146;48.140;16.304;2023-07-09T08:22:24;99867.66;;;27.12;43.23
69855;BME280;57146;48.140;16.304;2023-07-09T08:24:51;99866.81;;;27.23;46.39
69855;BME280;57146;48.140;16.304;2023-07-09T08:27:19;99868.31;;;27.27;45.18
69855;BME280;57146;48.140;16.304;2023-07-09T08:29:46;99862.13;;;27.30;42.04
69855;BME280;57146;48.140;16.304;2023-07-09T08:32:14;99865.22;;;27.32;43.45
69855;BME280;57146;48.140;16.304;2023-07-09T08:34:45;99867.78;;;27.47;45.34
69855;BME280;57146;48.140;16.304;2023-07-09T08:37:36;99863.97;;;27.40;41.71
69855;BME280;57146;48.140;16.304;2023-07-09T08:40:05;99871.31;;;27.40;41.34
69855;BME280;57146;48.140;16.304;2023-07-09T08:42:40;99868.63;;;27.40;41.67
69855;BME280;57146;48.140;16.304;2023-07-09T08:45:35;99868.28;;;27.31;41.40
69855;BME280;57146;48.140;16.304;2023-07-09T08:48:47;99862.09;;;27.34;41.38
69855;BME280;57146;48.140;16.304;2023-07-09T08:51:17;99862.41;;;27.43;41.94
69855;BME280;57146;48.140;16.304;2023-07-09T08:56:16;99865.22;;;27.74;41.34
69855;BME280;57146;48.140;16.304;2023-07-09T08:58:45;99873.97;;;27.88;40.60
69855;BME280;57146;48.140;16.304;2023-07-09T09:01:36;99873.97;;;27.88;41.09
69855;BME280;57146;48.140;16.304;2023-07-09T09:04:18;99873.09;;;27.99;40.14
69855;BME280;57146;48.140;16.304;2023-07-09T09:06:51;99872.22;;;28.09;40.09
69855;BME280;57146;48.140;16.304;2023-07-09T09:09:40;99872.16;;;28.16;38.67
69855;BME280;57146;48.140;16.304;2023-07-09T09:12:21;99870.44;;;28.29;38.09
69855;BME280;57146;48.140;16.304;2023-07-09T09:14:57;99874.09;;;28.15;38.42
69855;BME280;57146;48.140;16.304;2023-07-09T09:17:26;99864.31;;;28.25;38.76
69855;BME280;57146;48.140;16.304;2023-07-09T09:20:09;99861.91;;;28.31;37.69
69855;BME280;57146;48.140;16.304;2023-07-09T09:25:40;99861.47;;;28.39;41.13
69855;BME280;57146;48.140;16.304;2023-07-09T09:28:08;99867.78;;;28.56;39.29
69855;BME280;57146;48.140;16.304;2023-07-09T09:30:35;99869.22;;;28.68;38.25
69855;BME280;57146;48.140;16.304;2023-07-09T09:33:07;99867.94;;;28.76;37.05
69855;BME280;57146;48.140;16.304;2023-07-09T09:35:41;99866.31;;;28.82;38.10
69855;BME280;57146;48.140;16.304;2023-07-09T09:38:17;99872.72;;;28.92;39.85
69855;BME280;57146;48.140;16.304;2023-07-09T09:40:45;99872.25;;;29.01;37.85
69855;BME280;57146;48.140;16.304;2023-07-09T09:43:17;99867.97;;;29.03;38.57
69855;BME280;57146;48.140;16.304;2023-07-09T09:45:46;99871.91;;;28.95;36.83
69855;BME280;57146;48.140;16.304;2023-07-09T09:48:28;99870.75;;;28.96;37.36
69855;BME280;57146;48.140;16.304;2023-07-09T09:50:56;99864.06;;;29.04;37.49
69855;BME280;57146;48.140;16.304;2023-07-09T09:53:24;99860.13;;;29.09;37.85
69855;BME280;57146;48.140;16.304;2023-07-09T09:55:52;99864.19;;;29.21;37.17
69855;BME280;57146;48.140;16.304;2023-07-09T09:58:25;99869.66;;;29.17;35.98
69855;BME280;57146;48.140;16.304;2023-07-09T10:00:57;99865.78;;;29.18;36.59
69855;BME280;57146;48.140;16.304;2023-07-09T10:03:35;99859.13;;;29.23;36.46
69855;BME280;57146;48.140;16.304;2023-07-09T10:06:10;99856.34;;;29.26;36.78
69855;BME280;57146;48.140;16.304;2023-07-09T10:08:56;99860.53;;;29.31;36.82
69855;BME280;57146;48.140;16.304;2023-07-09T10:14:00;99850.69;;;29.41;37.94
69855;BME280;57146;48.140;16.304;2023-07-09T10:16:36;99846.03;;;29.41;37.53
69855;BME280;57146;48.140;16.304;2023-07-09T10:22:01;99855.66;;;29.46;36.31
69855;BME280;57146;48.140;16.304;2023-07-09T10:27:40;99849.88;;;29.44;35.52
69855;BME280;57146;48.140;16.304;2023-07-09T10:33:18;99836.06;;;29.34;37.02
69855;BME280;57146;48.140;16.304;2023-07-09T10:36:03;99830.06;;;29.47;36.35
69855;BME280;57146;48.140;16.304;2023-07-09T10:38:50;99831.19;;;29.49;35.06
69855;BME280;57146;48.140;16.304;2023-07-09T10:41:21;99829.25;;;29.50;34.29
69855;BME280;57146;48.140;16.304;2023-07-09T10:44:08;99833.38;;;29.34;32.83
69855;BME280;57146;48.140;16.304;2023-07-09T10:46:40;99830.66;;;29.34;33.02
69855;BME280;57146;48.140;16.304;2023-07-09T10:49:13;99819.53;;;29.29;31.92
69855;BME280;57146;48.140;16.304;2023-07-09T10:57:53;99826.78;;;29.35;28.78
69855;BME280;57146;48.140;16.304;2023-07-09T10:59:53;99823.19;;;29.19;29.81
69855;BME280;57146;48.140;16.304;2023-07-09T11:02:30;99824.13;;;29.08;30.31
69855;BME280;57146;48.140;16.304;2023-07-09T11:05:01;99823.25;;;29.15;30.49
69855;BME280;57146;48.140;16.304;2023-07-09T11:10:27;99812.41;;;29.39;30.75
69855;BME280;57146;48.140;16.304;2023-07-09T11:13:13;99818.72;;;29.52;27.87
69855;BME280;57146;48.140;16.304;2023-07-09T11:15:45;99822.09;;;29.59;27.37
69855;BME280;57146;48.140;16.304;2023-07-09T11:18:29;99814.00;;;29.56;27.43
69855;BME280;57146;48.140;16.304;2023-07-09T11:21:08;99806.28;;;29.54;30.10
69855;BME280;57146;48.140;16.304;2023-07-09T11:23:52;99808.47;;;29.63;28.26
69855;BME280;57146;48.140;16.304;2023-07-09T11:28:55;99810.44;;;29.82;28.52
69855;BME280;57146;48.140;16.304;2023-07-09T11:31:23;99815.38;;;29.88;27.45
69855;BME280;57146;48.140;16.304;2023-07-09T11:37:01;99806.34;;;29.94;28.79
69855;BME280;57146;48.140;16.304;2023-07-09T11:39:29;99800.00;;;30.01;28.84
69855;BME280;57146;48.140;16.304;2023-07-09T11:41:57;99799.78;;;30.12;28.40
69855;BME280;57146;48.140;16.304;2023-07-09T11:44:27;99797.75;;;30.16;28.34
69855;BME280;57146;48.140;16.304;2023-07-09T11:49:59;99794.59;;;30.21;26.94
69855;BME280;57146;48.140;16.304;2023-07-09T11:55:43;99790.50;;;30.09;26.95
69855;BME280;57146;48.140;16.304;2023-07-09T11:58:14;99793.09;;;30.16;26.13
69855;BME280;57146;48.140;16.304;2023-07-09T12:01:00;99784.06;;;30.23;25.95
69855;BME280;57146;48.140;16.304;2023-07-09T12:03:30;99779.22;;;30.30;24.19
69855;BME280;57146;48.140;16.304;2023-07-09T12:06:04;99779.94;;;30.15;24.81
69855;BME280;57146;48.140;16.304;2023-07-09T12:08:37;99784.59;;;30.14;25.71
69855;BME280;57146;48.140;16.304;2023-07-09T12:11:16;99776.78;;;30.16;26.57
69855;BME280;57146;48.140;16.304;2023-07-09T12:13:44;99777.03;;;30.25;27.27
69855;BME280;57146;48.140;16.304;2023-07-09T12:16:26;99771.16;;;30.27;27.00
69855;BME280;57146;48.140;16.304;2023-07-09T12:18:54;99772.97;;;30.34;26.77
69855;BME280;57146;48.140;16.304;2023-07-09T12:21:23;99770.94;;;30.38;26.94
69855;BME280;57146;48.140;16.304;2023-07-09T12:23:50;99771.00;;;30.34;27.02
69855;BME280;57146;48.140;16.304;2023-07-09T12:26:19;99766.38;;;30.35;26.40
69855;BME280;57146;48.140;16.304;2023-07-09T12:28:54;99762.59;;;30.28;27.34
69855;BME280;57146;48.140;16.304;2023-07-09T12:31:27;99758.53;;;30.37;26.79
69855;BME280;57146;48.140;16.304;2023-07-09T12:33:57;99752.69;;;30.54;26.61
69855;BME280;57146;48.140;16.304;2023-07-09T12:36:26;99757.38;;;30.54;25.61
69855;BME280;57146;48.140;16.304;2023-07-09T12:38:59;99748.94;;;30.48;26.08
69855;BME280;57146;48.140;16.304;2023-07-09T12:41:33;99752.88;;;30.47;25.80
69855;BME280;57146;48.140;16.304;2023-07-09T12:44:05;99746.06;;;30.39;25.87
69855;BME280;57146;48.140;16.304;2023-07-09T12:46:37;99741.59;;;30.49;26.86
69855;BME280;57146;48.140;16.304;2023-07-09T12:49:05;99744.47;;;30.58;26.46
69855;BME280;57146;48.140;16.304;2023-07-09T12:51:32;99730.41;;;30.63;25.90
69855;BME280;57146;48.140;16.304;2023-07-09T12:54:13;99728.53;;;30.76;25.53
69855;BME280;57146;48.140;16.304;2023-07-09T12:56:41;99729.19;;;30.81;25.30
69855;BME280;57146;48.140;16.304;2023-07-09T13:04:18;99713.16;;;30.86;25.80
69855;BME280;57146;48.140;16.304;2023-07-09T13:06:45;99714.31;;;31.01;24.83
69855;BME280;57146;48.140;16.304;2023-07-09T13:09:20;99717.50;;;31.13;24.49
69855;BME280;57146;48.140;16.304;2023-07-09T13:11:48;99716.34;;;31.14;25.42
69855;BME280;57146;48.140;16.304;2023-07-09T13:14:26;99710.13;;;31.13;24.10
69855;BME280;57146;48.140;16.304;2023-07-09T13:17:08;99710.81;;;31.17;23.89
69855;BME280;57146;48.140;16.304;2023-07-09T13:19:42;99703.16;;;31.12;24.11
69855;BME280;57146;48.140;16.304;2023-07-09T13:22:17;99700.63;;;31.05;24.58
69855;BME280;57146;48.140;16.304;2023-07-09T13:24:45;99705.38;;;31.01;24.38
69855;BME280;57146;48.140;16.304;2023-07-09T13:27:13;99704.97;;;31.03;23.88
69855;BME280;57146;48.140;16.304;2023-07-09T13:29:42;99703.25;;;31.09;24.27
69855;BME280;57146;48.140;16.304;2023-07-09T13:32:10;99706.72;;;31.09;23.57
69855;BME280;57146;48.140;16.304;2023-07-09T13:34:38;99699.81;;;31.21;23.94
69855;BME280;57146;48.140;16.304;2023-07-09T13:37:11;99702.25;;;31.03;23.68
69855;BME280;57146;48.140;16.304;2023-07-09T13:39:39;99699.66;;;31.12;24.49
69855;BME280;57146;48.140;16.304;2023-07-09T13:42:12;99703.44;;;31.31;24.26
69855;BME280;57146;48.140;16.304;2023-07-09T13:44:41;99702.53;;;31.21;23.75
69855;BME280;57146;48.140;16.304;2023-07-09T13:47:12;99694.72;;;31.23;24.51
69855;BME280;57146;48.140;16.304;2023-07-09T13:49:40;99697.06;;;31.37;24.36
69855;BME280;57146;48.140;16.304;2023-07-09T13:52:15;99698.63;;;31.51;24.46
69855;BME280;57146;48.140;16.304;2023-07-09T13:54:45;99696.56;;;31.55;24.58
69855;BME280;57146;48.140;16.304;2023-07-09T13:57:14;99695.69;;;31.58;24.64
69855;BME280;57146;48.140;16.304;2023-07-09T13:59:42;99693.13;;;31.67;24.83